sensor_id;sensor_type;location;lat;lon;timestamp;P1;durP1;ratioP1;P2;durP2;ratioP2
39782;SDS011;25462;51.164;17.100;2022-08-01T18:20:03;1.50;;;1.40;;
39782;SDS011;25462;51.164;17.100;2022-08-01T18:25:06;3.70;;;1.50;;
39782;SDS011;25462;51.164;17.100;2022-08-01T18:30:10;2.60;;;1.60;;
39782;SDS011;25462;51.164;17.100;2022-08-01T18:35:13;2.10;;;1.90;;
39782;SDS011;25462;51.164;17.100;2022-08-01T18:40:15;2.10;;;2.00;;
39782;SDS011;25462;51.164;17.100;2022-08-01T18:45:24;1.70;;;1.60;;
39782;SDS011;25462;51.164;17.100;2022-08-01T18:50:26;2.00;;;1.90;;
39782;SDS011;25462;51.164;17.100;2022-08-01T19:09:37;2.00;;;1.80;;
39782;SDS011;25462;51.164;17.100;2022-08-01T19:14:42;2.20;;;1.90;;
39782;SDS011;25462;51.164;17.100;2022-08-01T19:19:51;2.60;;;2.40;;
39782;SDS011;25462;51.164;17.100;2022-08-01T19:25:09;2.30;;;2.10;;
39782;SDS011;25462;51.164;17.100;2022-08-01T19:30:15;1.90;;;1.80;;
39782;SDS011;25462;51.164;17.100;2022-08-01T19:35:18;2.20;;;2.10;;
39782;SDS011;25462;51.164;17.100;2022-08-01T19:40:23;2.20;;;2.10;;
39782;SDS011;25462;51.164;17.100;2022-08-01T19:45:32;2.10;;;1.90;;
39782;SDS011;25462;51.164;17.100;2022-08-01T19:50:34;2.60;;;2.40;;
39782;SDS011;25462;51.164;17.100;2022-08-01T19:55:41;5.60;;;2.50;;
39782;SDS011;25462;51.164;17.100;2022-08-01T20:00:51;2.40;;;2.30;;
39782;SDS011;25462;51.164;17.100;2022-08-01T20:05:54;2.50;;;2.40;;
39782;SDS011;25462;51.164;17.100;2022-08-01T20:10:58;2.70;;;2.60;;
39782;SDS011;25462;51.164;17.100;2022-08-01T20:16:13;2.90;;;2.70;;
39782;SDS011;25462;51.164;17.100;2022-08-01T20:21:24;12.60;;;4.00;;
39782;SDS011;25462;51.164;17.100;2022-08-01T20:26:28;2.90;;;2.70;;
39782;SDS011;25462;51.164;17.100;2022-08-01T20:31:37;2.50;;;2.30;;
39782;SDS011;25462;51.164;17.100;2022-08-01T20:36:46;3.00;;;2.80;;
39782;SDS011;25462;51.164;17.100;2022-08-01T20:41:56;5.60;;;2.70;;
39782;SDS011;25462;51.164;17.100;2022-08-01T20:47:02;3.00;;;2.80;;
39782;SDS011;25462;51.164;17.100;2022-08-01T20:52:26;2.90;;;2.60;;
39782;SDS011;25462;51.164;17.100;2022-08-01T21:02:53;2.60;;;2.50;;
39782;SDS011;25462;51.164;17.100;2022-08-01T21:18:25;2.80;;;2.60;;
39782;SDS011;25462;51.164;17.100;2022-08-01T21:28:51;2.50;;;2.40;;
39782;SDS011;25462;51.164;17.100;2022-08-01T21:33:57;2.80;;;2.60;;
39782;SDS011;25462;51.164;17.100;2022-08-01T21:39:05;2.70;;;2.60;;
39782;SDS011;25462;51.164;17.100;2022-08-01T21:44:08;3.60;;;3.30;;
39782;SDS011;25462;51.164;17.100;2022-08-01T21:49:15;4.70;;;3.20;;
39782;SDS011;25462;51.164;17.100;2022-08-01T21:59:42;3.40;;;3.20;;
39782;SDS011;25462;51.164;17.100;2022-08-01T22:04:52;3.20;;;2.90;;
39782;SDS011;25462;51.164;17.100;2022-08-01T22:10:00;3.80;;;3.60;;
39782;SDS011;25462;51.164;17.100;2022-08-01T22:15:06;3.90;;;3.50;;
39782;SDS011;25462;51.164;17.100;2022-08-01T22:20:09;3.70;;;3.50;;
39782;SDS011;25462;51.164;17.100;2022-08-01T22:25:13;3.70;;;3.50;;
39782;SDS011;25462;51.164;17.100;2022-08-01T22:30:17;4.30;;;4.00;;
39782;SDS011;25462;51.164;17.100;2022-08-01T22:35:19;4.20;;;3.90;;
39782;SDS011;25462;51.164;17.100;2022-08-01T22:40:22;3.70;;;3.40;;
39782;SDS011;25462;51.164;17.100;2022-08-01T22:45:32;4.30;;;3.70;;
39782;SDS011;25462;51.164;17.100;2022-08-01T22:50:43;4.00;;;3.70;;
39782;SDS011;25462;51.164;17.100;2022-08-01T22:55:49;4.40;;;4.10;;
39782;SDS011;25462;51.164;17.100;2022-08-01T23:01:00;4.10;;;3.70;;
39782;SDS011;25462;51.164;17.100;2022-08-01T23:06:10;4.40;;;4.10;;
39782;SDS011;25462;51.164;17.100;2022-08-01T23:11:23;4.70;;;4.40;;
39782;SDS011;25462;51.164;17.100;2022-08-01T23:16:26;5.00;;;4.20;;
39782;SDS011;25462;51.164;17.100;2022-08-01T23:21:29;4.60;;;3.60;;
39782;SDS011;25462;51.164;17.100;2022-08-01T23:26:32;4.50;;;4.10;;
39782;SDS011;25462;51.164;17.100;2022-08-01T23:31:36;4.40;;;4.00;;
39782;SDS011;25462;51.164;17.100;2022-08-01T23:36:58;4.90;;;4.20;;
39782;SDS011;25462;51.164;17.100;2022-08-01T23:47:09;4.40;;;4.10;;
39782;SDS011;25462;51.164;17.100;2022-08-01T23:52:15;4.10;;;3.80;;
39782;SDS011;25462;51.164;17.100;2022-08-01T23:57:21;4.40;;;4.00;;
